sensor_id;sensor_type;location;lat;lon;timestamp;pressure;altitude;pressure_sealevel;temperature;humidity
53932;BME280;39844;52.496;13.482;2023-09-19T00:00:56;100375.69;;;18.57;100.00
53932;BME280;39844;52.496;13.482;2023-09-19T00:03:21;100372.25;;;18.55;100.00
53932;BME280;39844;52.496;13.482;2023-09-19T00:05:47;100369.66;;;18.53;100.00
53932;BME280;39844;52.496;13.482;2023-09-19T00:08:12;100374.16;;;18.51;100.00
53932;BME280;39844;52.496;13.482;2023-09-19T00:10:38;100367.13;;;18.50;100.00
53932;BME280;39844;52.496;13.482;2023-09-19T00:13:03;100369.91;;;18.47;100.00
53932;BME280;39844;52.496;13.482;2023-09-19T00:15:29;100372.59;;;18.46;100.00
53932;BME280;39844;52.496;13.482;2023-09-19T00:17:55;100368.28;;;18.43;100.00
53932;BME280;39844;52.496;13.482;2023-09-19T00:20:20;100369.19;;;18.42;100.00
53932;BME280;39844;52.496;13.482;2023-09-19T00:22:46;100360.47;;;18.39;100.00
53932;BME280;39844;52.496;13.482;2023-09-19T00:25:11;100364.09;;;18.38;100.00
53932;BME280;39844;52.496;13.482;2023-09-19T00:27:40;100360.63;;;18.36;100.00
53932;BME280;39844;52.496;13.482;2023-09-19T00:30:06;100361.59;;;18.33;100.00
53932;BME280;39844;52.496;13.482;2023-09-19T00:32:32;100358.13;;;18.31;100.00
53932;BME280;39844;52.496;13.482;2023-09-19T00:34:57;100360.00;;;18.29;100.00
53932;BME280;39844;52.496;13.482;2023-09-19T00:37:23;100361.88;;;18.27;100.00
53932;BME280;39844;52.496;13.482;2023-09-19T00:39:48;100365.50;;;18.24;100.00
53932;BME280;39844;52.496;13.482;2023-09-19T00:42:20;100363.78;;;18.23;100.00
53932;BME280;39844;52.496;13.482;2023-09-19T00:44:45;100359.44;;;18.21;100.00
53932;BME280;39844;52.496;13.482;2023-09-19T00:47:10;100369.22;;;18.20;100.00
53932;BME280;39844;52.496;13.482;2023-09-19T00:49:35;100359.56;;;18.18;100.00
53932;BME280;39844;52.496;13.482;2023-09-19T00:52:01;100355.19;;;18.17;100.00
53932;BME280;39844;52.496;13.482;2023-09-19T00:54:26;100356.13;;;18.16;100.00
53932;BME280;39844;52.496;13.482;2023-09-19T00:56:51;100365.94;;;18.14;100.00
53932;BME280;39844;52.496;13.482;2023-09-19T00:59:17;100367.72;;;18.13;100.00
53932;BME280;39844;52.496;13.482;2023-09-19T01:01:43;100369.50;;;18.13;100.00
53932;BME280;39844;52.496;13.482;2023-09-19T01:04:08;100369.59;;;18.11;100.00
53932;BME280;39844;52.496;13.482;2023-09-19T01:06:34;100369.66;;;18.10;100.00
53932;BME280;39844;52.496;13.482;2023-09-19T01:09:02;100365.25;;;18.09;100.00
53932;BME280;39844;52.496;13.482;2023-09-19T01:11:38;100358.28;;;18.06;100.00
53932;BME280;39844;52.496;13.482;2023-09-19T01:14:25;100354.84;;;18.04;100.00
53932;BME280;39844;52.496;13.482;2023-09-19T01:17:04;100357.53;;;18.03;100.00
53932;BME280;39844;52.496;13.482;2023-09-19T01:22:07;100370.00;;;18.01;100.00
53932;BME280;39844;52.496;13.482;2023-09-19T01:30:21;100367.56;;;17.96;100.00
53932;BME280;39844;52.496;13.482;2023-09-19T01:32:47;100372.00;;;17.96;100.00
53932;BME280;39844;52.496;13.482;2023-09-19T01:35:12;100371.13;;;17.95;100.00
53932;BME280;39844;52.496;13.482;2023-09-19T01:37:37;100366.69;;;17.96;100.00
53932;BME280;39844;52.496;13.482;2023-09-19T01:40:07;100356.94;;;17.96;100.00
53932;BME280;39844;52.496;13.482;2023-09-19T01:48:25;100369.09;;;18.02;100.00
53932;BME280;39844;52.496;13.482;2023-09-19T01:50:55;100369.03;;;18.03;100.00
53932;BME280;39844;52.496;13.482;2023-09-19T01:53:27;100371.69;;;18.03;100.00
53932;BME280;39844;52.496;13.482;2023-09-19T01:55:53;100374.31;;;18.05;100.00
53932;BME280;39844;52.496;13.482;2023-09-19T01:58:37;100368.03;;;18.06;100.00
53932;BME280;39844;52.496;13.482;2023-09-19T02:01:05;100365.47;;;18.04;100.00
53932;BME280;39844;52.496;13.482;2023-09-19T02:03:33;100370.78;;;18.04;100.00
53932;BME280;39844;52.496;13.482;2023-09-19T02:06:00;100378.84;;;18.01;100.00
53932;BME280;39844;52.496;13.482;2023-09-19T02:08:25;100383.41;;;17.98;100.00
53932;BME280;39844;52.496;13.482;2023-09-19T02:10:51;100380.91;;;17.95;100.00
53932;BME280;39844;52.496;13.482;2023-09-19T02:13:18;100380.94;;;17.93;100.00
53932;BME280;39844;52.496;13.482;2023-09-19T02:15:43;100395.22;;;17.91;100.00
53932;BME280;39844;52.496;13.482;2023-09-19T02:18:09;100387.31;;;17.89;100.00
53932;BME280;39844;52.496;13.482;2023-09-19T02:20:34;100383.00;;;17.87;100.00
53932;BME280;39844;52.496;13.482;2023-09-19T02:22:59;100395.47;;;17.85;100.00
53932;BME280;39844;52.496;13.482;2023-09-19T02:25:25;100395.47;;;17.85;100.00
53932;BME280;39844;52.496;13.482;2023-09-19T02:27:50;100399.09;;;17.82;100.00
53932;BME280;39844;52.496;13.482;2023-09-19T02:30:15;100411.50;;;17.82;100.00
53932;BME280;39844;52.496;13.482;2023-09-19T02:32:41;100401.00;;;17.79;100.00
53932;BME280;39844;52.496;13.482;2023-09-19T02:35:07;100408.97;;;17.79;100.00
53932;BME280;39844;52.496;13.482;2023-09-19T02:37:32;100409.00;;;17.77;100.00
53932;BME280;39844;52.496;13.482;2023-09-19T02:39:57;100408.22;;;17.75;100.00
53932;BME280;39844;52.496;13.482;2023-09-19T02:42:23;100412.66;;;17.75;100.00
53932;BME280;39844;52.496;13.482;2023-09-19T02:44:48;100407.41;;;17.73;100.00
53932;BME280;39844;52.496;13.482;2023-09-19T02:47:13;100407.53;;;17.70;100.00
53932;BME280;39844;52.496;13.482;2023-09-19T02:49:39;100415.56;;;17.68;100.00
53932;BME280;39844;52.496;13.482;2023-09-19T02:52:04;100419.13;;;17.67;100.00
53932;BME280;39844;52.496;13.482;2023-09-19T02:54:33;100420.91;;;17.67;100.00
53932;BME280;39844;52.496;13.482;2023-09-19T02:56:58;100417.41;;;17.66;100.00
53932;BME280;39844;52.496;13.482;2023-09-19T02:59:23;100424.44;;;17.67;100.00
53932;BME280;39844;52.496;13.482;2023-09-19T03:01:49;100419.13;;;17.67;100.00
53932;BME280;39844;52.496;13.482;2023-09-19T03:04:14;100429.63;;;17.71;100.00
53932;BME280;39844;52.496;13.482;2023-09-19T03:06:39;100425.91;;;17.75;100.00
53932;BME280;39844;52.496;13.482;2023-09-19T03:09:05;100428.47;;;17.78;100.00
53932;BME280;39844;52.496;13.482;2023-09-19T03:11:30;100438.06;;;17.82;100.00
53932;BME280;39844;52.496;13.482;2023-09-19T03:13:55;100435.22;;;17.86;100.00
53932;BME280;39844;52.496;13.482;2023-09-19T03:16:21;100437.81;;;17.88;100.00
53932;BME280;39844;52.496;13.482;2023-09-19T03:18:46;100434.13;;;17.92;100.00
53932;BME280;39844;52.496;13.482;2023-09-19T03:21:11;100432.28;;;17.94;100.00
53932;BME280;39844;52.496;13.482;2023-09-19T03:23:37;100433.03;;;17.97;100.00
53932;BME280;39844;52.496;13.482;2023-09-19T03:26:02;100433.94;;;17.96;99.04
53932;BME280;39844;52.496;13.482;2023-09-19T03:28:27;100442.69;;;18.00;98.61
53932;BME280;39844;52.496;13.482;2023-09-19T03:31:03;100446.94;;;18.04;97.20
53932;BME280;39844;52.496;13.482;2023-09-19T03:33:29;100444.16;;;18.07;95.76
53932;BME280;39844;52.496;13.482;2023-09-19T03:35:54;100441.38;;;18.10;94.76
53932;BME280;39844;52.496;13.482;2023-09-19T03:38:20;100449.28;;;18.11;93.36
53932;BME280;39844;52.496;13.482;2023-09-19T03:40:45;100451.84;;;18.14;93.65
53932;BME280;39844;52.496;13.482;2023-09-19T03:43:11;100457.94;;;18.16;93.79
53932;BME280;39844;52.496;13.482;2023-09-19T03:45:36;100454.41;;;18.16;91.96
53932;BME280;39844;52.496;13.482;2023-09-19T03:48:01;100458.84;;;18.15;90.70
53932;BME280;39844;52.496;13.482;2023-09-19T03:50:26;100460.59;;;18.16;90.36
53932;BME280;39844;52.496;13.482;2023-09-19T03:52:56;100462.34;;;18.17;90.15
53932;BME280;39844;52.496;13.482;2023-09-19T03:55:22;100466.78;;;18.17;89.76
53932;BME280;39844;52.496;13.482;2023-09-19T03:57:50;100465.91;;;18.16;89.60
53932;BME280;39844;52.496;13.482;2023-09-19T04:00:15;100476.63;;;18.15;90.03
53932;BME280;39844;52.496;13.482;2023-09-19T04:02:41;100468.75;;;18.12;90.84
53932;BME280;39844;52.496;13.482;2023-09-19T04:05:06;100475.94;;;18.10;91.17
53932;BME280;39844;52.496;13.482;2023-09-19T04:07:31;100477.06;;;18.03;90.39
53932;BME280;39844;52.496;13.482;2023-09-19T04:09:57;100474.56;;;18.00;89.11
53932;BME280;39844;52.496;13.482;2023-09-19T04:12:22;100469.25;;;18.00;89.86
53932;BME280;39844;52.496;13.482;2023-09-19T04:14:47;100464.03;;;17.97;87.20
53932;BME280;39844;52.496;13.482;2023-09-19T04:17:13;100479.97;;;17.97;87.21
53932;BME280;39844;52.496;13.482;2023-09-19T04:19:38;100469.38;;;17.95;85.73
53932;BME280;39844;52.496;13.482;2023-09-19T04:22:03;100479.97;;;17.97;84.25
53932;BME280;39844;52.496;13.482;2023-09-19T04:24:28;100474.66;;;17.97;84.00
53932;BME280;39844;52.496;13.482;2023-09-19T04:26:54;100479.97;;;17.97;81.77
53932;BME280;39844;52.496;13.482;2023-09-19T04:29:19;100480.78;;;17.99;83.21
53932;BME280;39844;52.496;13.482;2023-09-19T04:31:44;100484.31;;;17.99;80.58
53932;BME280;39844;52.496;13.482;2023-09-19T04:34:10;100490.50;;;18.00;80.12
53932;BME280;39844;52.496;13.482;2023-09-19T04:36:35;100492.19;;;18.01;80.70
53932;BME280;39844;52.496;13.482;2023-09-19T04:39:01;100493.94;;;18.02;80.51
53932;BME280;39844;52.496;13.482;2023-09-19T04:41:26;100494.84;;;18.01;79.87
53932;BME280;39844;52.496;13.482;2023-09-19T04:43:51;100502.03;;;17.99;78.93
53932;BME280;39844;52.496;13.482;2023-09-19T04:46:16;100503.81;;;17.98;79.73
53932;BME280;39844;52.496;13.482;2023-09-19T04:48:42;100510.09;;;17.96;78.51
53932;BME280;39844;52.496;13.482;2023-09-19T04:51:07;100518.06;;;17.96;78.91
53932;BME280;39844;52.496;13.482;2023-09-19T04:53:32;100518.13;;;17.94;78.71
53932;BME280;39844;52.496;13.482;2023-09-19T04:55:58;100515.53;;;17.93;80.04
53932;BME280;39844;52.496;13.482;2023-09-19T04:58:23;100520.03;;;17.91;78.81
53932;BME280;39844;52.496;13.482;2023-09-19T05:00:48;100512.16;;;17.88;79.09
53932;BME280;39844;52.496;13.482;2023-09-19T05:03:14;100529.84;;;17.89;79.14
53932;BME280;39844;52.496;13.482;2023-09-19T05:05:39;100523.78;;;17.85;78.84
53932;BME280;39844;52.496;13.482;2023-09-19T05:08:04;100521.19;;;17.84;79.70
53932;BME280;39844;52.496;13.482;2023-09-19T05:10:30;100529.16;;;17.84;80.75
53932;BME280;39844;52.496;13.482;2023-09-19T05:12:55;100537.22;;;17.81;81.14
53932;BME280;39844;52.496;13.482;2023-09-19T05:15:20;100533.78;;;17.79;81.31
53932;BME280;39844;52.496;13.482;2023-09-19T05:17:50;100538.38;;;17.74;80.30
53932;BME280;39844;52.496;13.482;2023-09-19T05:20:15;100538.41;;;17.72;79.55
53932;BME280;39844;52.496;13.482;2023-09-19T05:22:43;100542.91;;;17.70;79.49
53932;BME280;39844;52.496;13.482;2023-09-19T05:25:09;100562.38;;;17.71;79.10
53932;BME280;39844;52.496;13.482;2023-09-19T05:27:35;100554.50;;;17.67;78.98
53932;BME280;39844;52.496;13.482;2023-09-19T05:30:00;100557.16;;;17.67;79.17
53932;BME280;39844;52.496;13.482;2023-09-19T05:32:25;100566.88;;;17.68;78.99
53932;BME280;39844;52.496;13.482;2023-09-19T05:34:50;100562.47;;;17.67;78.45
53932;BME280;39844;52.496;13.482;2023-09-19T05:37:16;100575.75;;;17.67;78.14
53932;BME280;39844;52.496;13.482;2023-09-19T05:39:42;100578.41;;;17.67;78.77
53932;BME280;39844;52.496;13.482;2023-09-19T05:42:07;100577.53;;;17.67;78.86
53932;BME280;39844;52.496;13.482;2023-09-19T05:44:32;100582.00;;;17.66;79.49
53932;BME280;39844;52.496;13.482;2023-09-19T05:46:57;100580.25;;;17.65;79.18
53932;BME280;39844;52.496;13.482;2023-09-19T05:49:23;100586.53;;;17.63;79.62
53932;BME280;39844;52.496;13.482;2023-09-19T05:51:48;100587.50;;;17.60;79.84
53932;BME280;39844;52.496;13.482;2023-09-19T05:54:13;100599.97;;;17.58;79.65
53932;BME280;39844;52.496;13.482;2023-09-19T05:56:39;100603.53;;;17.57;79.90
53932;BME280;39844;52.496;13.482;2023-09-19T05:59:04;100603.63;;;17.54;79.06
53932;BME280;39844;52.496;13.482;2023-09-19T06:01:29;100608.94;;;17.54;79.43
53932;BME280;39844;52.496;13.482;2023-09-19T06:03:54;100615.19;;;17.53;79.25
53932;BME280;39844;52.496;13.482;2023-09-19T06:06:20;100615.19;;;17.53;79.54
53932;BME280;39844;52.496;13.482;2023-09-19T06:08:45;100624.06;;;17.52;79.26
53932;BME280;39844;52.496;13.482;2023-09-19T06:11:10;100632.94;;;17.51;79.19
53932;BME280;39844;52.496;13.482;2023-09-19T06:13:36;100641.81;;;17.50;78.89
53932;BME280;39844;52.496;13.482;2023-09-19T06:16:01;100644.47;;;17.50;79.41
53932;BME280;39844;52.496;13.482;2023-09-19T06:18:26;100643.59;;;17.50;78.91
53932;BME280;39844;52.496;13.482;2023-09-19T06:20:52;100648.03;;;17.49;78.65
53932;BME280;39844;52.496;13.482;2023-09-19T06:23:17;100653.31;;;17.49;79.60
53932;BME280;39844;52.496;13.482;2023-09-19T06:25:43;100655.16;;;17.49;79.45
53932;BME280;39844;52.496;13.482;2023-09-19T06:28:09;100649.88;;;17.47;78.33
53932;BME280;39844;52.496;13.482;2023-09-19T06:30:34;100654.19;;;17.50;79.65
53932;BME280;39844;52.496;13.482;2023-09-19T06:33:00;100665.69;;;17.50;79.18
53932;BME280;39844;52.496;13.482;2023-09-19T06:35:26;100655.06;;;17.50;78.71
53932;BME280;39844;52.496;13.482;2023-09-19T06:37:52;100649.78;;;17.50;79.26
53932;BME280;39844;52.496;13.482;2023-09-19T06:40:18;100664.78;;;17.51;78.88
53932;BME280;39844;52.496;13.482;2023-09-19T06:42:45;100661.25;;;17.51;79.02
53932;BME280;39844;52.496;13.482;2023-09-19T06:45:12;100668.28;;;17.52;78.27
53932;BME280;39844;52.496;13.482;2023-09-19T06:47:37;100670.88;;;17.55;78.61
53932;BME280;39844;52.496;13.482;2023-09-19T06:50:03;100669.03;;;17.57;77.49
53932;BME280;39844;52.496;13.482;2023-09-19T06:52:28;100666.28;;;17.60;77.45
53932;BME280;39844;52.496;13.482;2023-09-19T06:54:53;100675.91;;;17.64;77.85
53932;BME280;39844;52.496;13.482;2023-09-19T06:57:19;100682.88;;;17.66;77.74
53932;BME280;39844;52.496;13.482;2023-09-19T06:59:44;100679.25;;;17.69;77.25
53932;BME280;39844;52.496;13.482;2023-09-19T07:02:09;100685.31;;;17.73;76.41
53932;BME280;39844;52.496;13.482;2023-09-19T07:04:34;100674.53;;;17.77;76.82
53932;BME280;39844;52.496;13.482;2023-09-19T07:07:00;100665.41;;;17.86;77.66
53932;BME280;39844;52.496;13.482;2023-09-19T07:09:25;100674.03;;;17.92;76.15
53932;BME280;39844;52.496;13.482;2023-09-19T07:11:50;100671.13;;;18.00;76.03
53932;BME280;39844;52.496;13.482;2023-09-19T07:14:16;100676.09;;;18.09;75.76
53932;BME280;39844;52.496;13.482;2023-09-19T07:16:41;100684.56;;;18.20;75.49
53932;BME280;39844;52.496;13.482;2023-09-19T07:19:06;100686.78;;;18.30;74.77
53932;BME280;39844;52.496;13.482;2023-09-19T07:21:32;100682.84;;;18.42;73.46
53932;BME280;39844;52.496;13.482;2023-09-19T07:23:57;100689.66;;;18.51;71.20
53932;BME280;39844;52.496;13.482;2023-09-19T07:26:22;100680.53;;;18.58;71.12
53932;BME280;39844;52.496;13.482;2023-09-19T07:28:47;100675.72;;;18.67;70.36
53932;BME280;39844;52.496;13.482;2023-09-19T07:31:13;100689.50;;;18.78;71.07
53932;BME280;39844;52.496;13.482;2023-09-19T07:33:38;100693.56;;;18.87;69.97
53932;BME280;39844;52.496;13.482;2023-09-19T07:36:03;100701.50;;;18.88;68.02
53932;BME280;39844;52.496;13.482;2023-09-19T07:38:29;100703.22;;;18.89;67.48
53932;BME280;39844;52.496;13.482;2023-09-19T07:41:00;100712.16;;;18.88;67.18
53932;BME280;39844;52.496;13.482;2023-09-19T07:43:25;100701.44;;;18.90;66.12
53932;BME280;39844;52.496;13.482;2023-09-19T07:45:51;100709.25;;;18.94;66.48
53932;BME280;39844;52.496;13.482;2023-09-19T07:48:16;100704.88;;;18.93;64.85
53932;BME280;39844;52.496;13.482;2023-09-19T07:50:41;100712.16;;;18.88;65.74
53932;BME280;39844;52.496;13.482;2023-09-19T07:53:07;100709.63;;;18.84;66.30
53932;BME280;39844;52.496;13.482;2023-09-19T07:55:32;100715.03;;;18.82;65.97
53932;BME280;39844;52.496;13.482;2023-09-19T07:57:57;100724.75;;;18.83;66.16
53932;BME280;39844;52.496;13.482;2023-09-19T08:00:22;100726.47;;;18.84;65.47
53932;BME280;39844;52.496;13.482;2023-09-19T08:02:48;100741.53;;;18.85;64.03
53932;BME280;39844;52.496;13.482;2023-09-19T08:05:13;100734.41;;;18.86;63.96
53932;BME280;39844;52.496;13.482;2023-09-19T08:07:40;100760.13;;;18.85;62.94
53932;BME280;39844;52.496;13.482;2023-09-19T08:10:06;100748.56;;;18.86;62.68
53932;BME280;39844;52.496;13.482;2023-09-19T08:12:31;100730.00;;;18.85;62.67
53932;BME280;39844;52.496;13.482;2023-09-19T08:14:57;100734.44;;;18.84;63.06
53932;BME280;39844;52.496;13.482;2023-09-19T08:17:22;100730.06;;;18.83;63.37
53932;BME280;39844;52.496;13.482;2023-09-19T08:19:47;100727.25;;;18.88;62.40
53932;BME280;39844;52.496;13.482;2023-09-19T08:22:15;100721.91;;;18.88;62.05
53932;BME280;39844;52.496;13.482;2023-09-19T08:24:40;100729.72;;;18.92;61.80
53932;BME280;39844;52.496;13.482;2023-09-19T08:27:05;100729.09;;;18.86;62.05
53932;BME280;39844;52.496;13.482;2023-09-19T08:29:31;100729.09;;;18.86;61.95
53932;BME280;39844;52.496;13.482;2023-09-19T08:31:57;100732.84;;;18.80;61.72
53932;BME280;39844;52.496;13.482;2023-09-19T08:34:23;100736.50;;;18.78;61.73
53932;BME280;39844;52.496;13.482;2023-09-19T08:36:53;100741.03;;;18.74;61.26
53932;BME280;39844;52.496;13.482;2023-09-19T08:39:18;100733.31;;;18.68;61.73
53932;BME280;39844;52.496;13.482;2023-09-19T08:41:44;100744.88;;;18.67;62.68
53932;BME280;39844;52.496;13.482;2023-09-19T08:44:09;100763.41;;;18.69;63.44
53932;BME280;39844;52.496;13.482;2023-09-19T08:46:35;100742.97;;;18.71;63.36
53932;BME280;39844;52.496;13.482;2023-09-19T08:49:09;100737.69;;;18.69;61.82
53932;BME280;39844;52.496;13.482;2023-09-19T08:51:44;100769.50;;;18.72;63.08
53932;BME280;39844;52.496;13.482;2023-09-19T08:54:26;100764.25;;;18.71;62.31
53932;BME280;39844;52.496;13.482;2023-09-19T08:56:54;100757.09;;;18.71;60.95
53932;BME280;39844;52.496;13.482;2023-09-19T08:59:25;100770.53;;;18.68;60.69
53932;BME280;39844;52.496;13.482;2023-09-19T09:01:51;100774.91;;;18.69;61.33
53932;BME280;39844;52.496;13.482;2023-09-19T09:04:17;100759.06;;;18.66;61.53
53932;BME280;39844;52.496;13.482;2023-09-19T09:06:43;100768.78;;;18.67;60.36
53932;BME280;39844;52.496;13.482;2023-09-19T09:09:09;100765.31;;;18.65;60.34
53932;BME280;39844;52.496;13.482;2023-09-19T09:11:34;100775.16;;;18.63;60.06
53932;BME280;39844;52.496;13.482;2023-09-19T09:14:00;100785.78;;;18.63;60.23
53932;BME280;39844;52.496;13.482;2023-09-19T09:16:26;100776.88;;;18.64;60.32
53932;BME280;39844;52.496;13.482;2023-09-19T09:18:51;100768.09;;;18.62;59.81
53932;BME280;39844;52.496;13.482;2023-09-19T09:21:17;100779.59;;;18.63;59.92
53932;BME280;39844;52.496;13.482;2023-09-19T09:23:42;100786.63;;;18.64;59.59
53932;BME280;39844;52.496;13.482;2023-09-19T09:26:07;100790.88;;;18.69;60.29
53932;BME280;39844;52.496;13.482;2023-09-19T09:28:34;100790.78;;;18.72;59.79
53932;BME280;39844;52.496;13.482;2023-09-19T09:31:00;100788.97;;;18.73;59.71
53932;BME280;39844;52.496;13.482;2023-09-19T09:33:26;100779.91;;;18.78;59.61
53932;BME280;39844;52.496;13.482;2023-09-19T09:35:59;100786.63;;;18.88;59.70
53932;BME280;39844;52.496;13.482;2023-09-19T09:38:29;100786.06;;;19.04;59.92
53932;BME280;39844;52.496;13.482;2023-09-19T09:40:56;100785.88;;;19.08;57.78
53932;BME280;39844;52.496;13.482;2023-09-19T09:43:39;100781.38;;;19.10;57.06
53932;BME280;39844;52.496;13.482;2023-09-19T09:48:39;100777.25;;;19.25;57.42
53932;BME280;39844;52.496;13.482;2023-09-19T09:51:04;100778.06;;;19.27;55.74
53932;BME280;39844;52.496;13.482;2023-09-19T09:53:30;100787.66;;;19.31;56.26
53932;BME280;39844;52.496;13.482;2023-09-19T09:58:25;100791.72;;;19.18;54.05
53932;BME280;39844;52.496;13.482;2023-09-19T10:00:54;100787.56;;;19.11;55.62
53932;BME280;39844;52.496;13.482;2023-09-19T10:03:20;100791.28;;;19.07;55.28
53932;BME280;39844;52.496;13.482;2023-09-19T10:05:45;100805.50;;;19.06;54.87
53932;BME280;39844;52.496;13.482;2023-09-19T10:08:11;100795.75;;;19.05;55.29
53932;BME280;39844;52.496;13.482;2023-09-19T10:10:40;100793.25;;;19.02;55.37
53932;BME280;39844;52.496;13.482;2023-09-19T10:13:07;100797.69;;;19.01;53.94
53932;BME280;39844;52.496;13.482;2023-09-19T10:15:32;100802.84;;;19.06;53.14
53932;BME280;39844;52.496;13.482;2023-09-19T10:18:00;100805.28;;;19.12;52.39
53932;BME280;39844;52.496;13.482;2023-09-19T10:20:26;100808.50;;;19.20;53.43
53932;BME280;39844;52.496;13.482;2023-09-19T10:22:53;100788.94;;;19.21;52.71
53932;BME280;39844;52.496;13.482;2023-09-19T10:25:19;100802.03;;;19.27;53.98
53932;BME280;39844;52.496;13.482;2023-09-19T10:27:45;100785.22;;;19.25;52.57
53932;BME280;39844;52.496;13.482;2023-09-19T10:30:11;100789.53;;;19.29;52.66
53932;BME280;39844;52.496;13.482;2023-09-19T10:32:39;100793.78;;;19.33;52.65
53932;BME280;39844;52.496;13.482;2023-09-19T10:35:05;100796.56;;;19.30;51.87
53932;BME280;39844;52.496;13.482;2023-09-19T10:37:32;100791.09;;;19.34;52.71
53932;BME280;39844;52.496;13.482;2023-09-19T10:39:59;100786.53;;;19.38;51.66
53932;BME280;39844;52.496;13.482;2023-09-19T10:42:25;100780.03;;;19.45;50.45
53932;BME280;39844;52.496;13.482;2023-09-19T10:44:52;100773.44;;;19.55;50.72
53932;BME280;39844;52.496;13.482;2023-09-19T10:47:17;100781.03;;;19.64;50.45
53932;BME280;39844;52.496;13.482;2023-09-19T10:49:44;100774.28;;;19.77;50.69
53932;BME280;39844;52.496;13.482;2023-09-19T10:52:09;100777.44;;;19.87;50.28
53932;BME280;39844;52.496;13.482;2023-09-19T10:54:35;100782.56;;;19.91;50.30
53932;BME280;39844;52.496;13.482;2023-09-19T10:57:01;100791.38;;;19.93;50.09
53932;BME280;39844;52.496;13.482;2023-09-19T10:59:26;100788.38;;;20.01;50.44
53932;BME280;39844;52.496;13.482;2023-09-19T11:01:56;100784.59;;;20.06;48.92
53932;BME280;39844;52.496;13.482;2023-09-19T11:07:10;100789.75;;;20.11;48.80
53932;BME280;39844;52.496;13.482;2023-09-19T11:09:54;100784.09;;;20.18;48.71
53932;BME280;39844;52.496;13.482;2023-09-19T11:15:00;100782.94;;;20.26;46.46
53932;BME280;39844;52.496;13.482;2023-09-19T11:30:32;100805.78;;;20.92;43.50
53932;BME280;39844;52.496;13.482;2023-09-19T11:33:29;100795.00;;;21.13;44.60
53932;BME280;39844;52.496;13.482;2023-09-19T11:36:08;100807.75;;;21.27;44.38
53932;BME280;39844;52.496;13.482;2023-09-19T11:43:45;100797.25;;;20.84;43.88
53932;BME280;39844;52.496;13.482;2023-09-19T11:46:11;100798.38;;;20.78;45.70
53932;BME280;39844;52.496;13.482;2023-09-19T11:48:38;100797.06;;;20.68;45.53
53932;BME280;39844;52.496;13.482;2023-09-19T11:51:12;100797.06;;;20.68;45.38
53932;BME280;39844;52.496;13.482;2023-09-19T11:53:38;100790.91;;;20.86;44.53
53932;BME280;39844;52.496;13.482;2023-09-19T11:56:06;100791.78;;;20.87;44.99
53932;BME280;39844;52.496;13.482;2023-09-19T11:58:31;100795.13;;;20.92;43.54
53932;BME280;39844;52.496;13.482;2023-09-19T12:00:58;100795.81;;;20.95;44.52
53932;BME280;39844;52.496;13.482;2023-09-19T12:03:29;100790.19;;;21.21;44.80
53932;BME280;39844;52.496;13.482;2023-09-19T12:05:54;100796.25;;;21.43;44.10
53932;BME280;39844;52.496;13.482;2023-09-19T12:08:20;100793.38;;;21.48;42.44
53932;BME280;39844;52.496;13.482;2023-09-19T12:10:47;100799.19;;;21.56;42.88
53932;BME280;39844;52.496;13.482;2023-09-19T12:13:17;100803.97;;;21.50;42.59
53932;BME280;39844;52.496;13.482;2023-09-19T12:15:43;100806.56;;;21.51;42.33
53932;BME280;39844;52.496;13.482;2023-09-19T12:18:08;100810.06;;;21.53;41.91
53932;BME280;39844;52.496;13.482;2023-09-19T12:20:44;100810.09;;;21.52;41.84
53932;BME280;39844;52.496;13.482;2023-09-19T12:23:13;100809.41;;;21.48;41.56
53932;BME280;39844;52.496;13.482;2023-09-19T12:25:42;100803.69;;;21.56;42.44
53932;BME280;39844;52.496;13.482;2023-09-19T12:28:08;100799.44;;;21.52;41.23
53932;BME280;39844;52.496;13.482;2023-09-19T12:30:33;100799.38;;;21.53;42.52
53932;BME280;39844;52.496;13.482;2023-09-19T12:32:59;100804.03;;;21.67;41.46
53932;BME280;39844;52.496;13.482;2023-09-19T12:35:33;100808.38;;;21.69;42.06
53932;BME280;39844;52.496;13.482;2023-09-19T12:37:58;100814.06;;;21.62;40.71
53932;BME280;39844;52.496;13.482;2023-09-19T12:40:24;100804.34;;;21.61;41.64
53932;BME280;39844;52.496;13.482;2023-09-19T12:42:49;100811.91;;;21.70;41.44
53932;BME280;39844;52.496;13.482;2023-09-19T12:45:15;100801.28;;;21.87;41.21
53932;BME280;39844;52.496;13.482;2023-09-19T12:48:20;100803.53;;;21.96;40.52
53932;BME280;39844;52.496;13.482;2023-09-19T12:53:29;100793.47;;;22.01;40.38
53932;BME280;39844;52.496;13.482;2023-09-19T12:55:59;100798.72;;;22.02;41.04
53932;BME280;39844;52.496;13.482;2023-09-19T12:58:25;100792.09;;;21.92;40.98
53932;BME280;39844;52.496;13.482;2023-09-19T13:00:50;100794.72;;;21.94;40.65
53932;BME280;39844;52.496;13.482;2023-09-19T13:03:28;100791.47;;;21.87;39.74
53932;BME280;39844;52.496;13.482;2023-09-19T13:05:58;100794.44;;;21.81;39.87
53932;BME280;39844;52.496;13.482;2023-09-19T13:08:28;100801.69;;;21.61;39.97
53932;BME280;39844;52.496;13.482;2023-09-19T13:11:11;100789.38;;;21.57;41.70
53932;BME280;39844;52.496;13.482;2023-09-19T13:13:39;100785.78;;;21.58;41.02
53932;BME280;39844;52.496;13.482;2023-09-19T13:16:04;100785.06;;;21.54;41.67
53932;BME280;39844;52.496;13.482;2023-09-19T13:18:30;100789.09;;;21.44;41.29
53932;BME280;39844;52.496;13.482;2023-09-19T13:21:08;100788.69;;;21.34;42.26